Time;durP1;ratioP1;P1;durP2;ratioP2;P2;SDS_P1;SDS_P2;PMS_P1;PMS_P2;Temp;Humidity;BMP_temperature;BMP_pressure;BME280_temperature;BME280_humidity;BME280_pressure;Samples;Min_cycle;Max_cycle;Signal;HPM_P1;HPM_P2
2021/06/17 00:02:14;;;;;;;10.00;6.15;;;;;;;19.27;85.66;100408.50;5053535;28;20090;-81
2021/06/17 00:04:39;;;;;;;10.25;6.57;;;;;;;19.25;85.40;100405.97;5054579;28;20032;-81
2021/06/17 00:07:05;;;;;;;11.40;6.25;;;;;;;19.22;84.95;100408.78;5054933;28;20455;-81
2021/06/17 00:09:30;;;;;;;10.95;5.70;;;;;;;19.27;84.73;100413.75;5053318;28;20032;-81
2021/06/17 00:12:00;;;;;;;9.10;5.85;;;;;;;19.20;84.96;100409.78;5054090;28;20048;-81
2021/06/17 00:14:27;;;;;;;10.73;5.88;;;;;;;19.16;84.60;100403.84;5056014;28;20017;-81
2021/06/17 00:16:52;;;;;;;14.15;6.18;;;;;;;19.15;84.48;100409.19;5055000;28;20035;-81
2021/06/17 00:19:17;;;;;;;9.07;5.97;;;;;;;19.09;84.60;100411.25;5054789;28;20025;-81
2021/06/17 00:21:43;;;;;;;12.65;5.90;;;;;;;19.16;83.94;100397.75;5053658;28;20119;-81
2021/06/17 00:24:08;;;;;;;7.40;5.38;;;;;;;19.10;84.22;100404.22;5055551;28;20461;-81
2021/06/17 00:26:33;;;;;;;9.63;5.53;;;;;;;19.11;84.16;100407.69;5055159;28;20047;-81
2021/06/17 00:28:59;;;;;;;9.63;5.38;;;;;;;19.05;83.82;100407.06;5053573;28;20053;-81
2021/06/17 00:31:24;;;;;;;10.75;5.63;;;;;;;19.13;83.57;100411.09;5054738;28;20028;-81
2021/06/17 00:33:49;;;;;;;12.07;5.93;;;;;;;19.07;83.52;100407.84;5054738;28;20033;-80
2021/06/17 00:36:14;;;;;;;9.13;5.25;;;;;;;19.04;83.91;100402.75;5053818;28;20112;-80
2021/06/17 00:38:40;;;;;;;13.43;5.97;;;;;;;19.02;83.71;100403.78;5053714;28;20048;-81
2021/06/17 00:41:05;;;;;;;10.07;5.80;;;;;;;18.99;83.65;100401.31;5055544;28;20025;-80
2021/06/17 00:43:30;;;;;;;10.45;5.28;;;;;;;18.93;83.89;100406.91;5054967;28;20028;-80
2021/06/17 00:45:56;;;;;;;9.93;5.70;;;;;;;18.86;84.27;100403.78;5053155;28;20116;-80
2021/06/17 00:48:22;;;;;;;8.90;5.45;;;;;;;18.85;84.15;100402.09;5052979;28;20029;-80
2021/06/17 00:50:51;;;;;;;12.82;5.35;;;;;;;18.83;84.04;100396.91;5054138;28;20058;-80
2021/06/17 00:53:22;;;;;;;10.65;5.38;;;;;;;18.81;84.01;100406.69;5054051;28;20423;-80
2021/06/17 00:55:48;;;;;;;9.38;5.65;;;;;;;18.79;83.88;100399.81;5052382;28;20508;-80
2021/06/17 00:58:14;;;;;;;11.75;5.53;;;;;;;18.76;84.12;100408.69;5054235;28;20032;-80
2021/06/17 01:00:40;;;;;;;9.90;5.07;;;;;;;18.69;84.65;100407.31;5052698;28;20021;-80
2021/06/17 01:03:06;;;;;;;8.30;4.80;;;;;;;18.69;84.31;100401.19;5054064;28;20061;-80
2021/06/17 01:05:32;;;;;;;9.63;5.40;;;;;;;18.63;84.33;100397.97;5054132;28;20052;-80
2021/06/17 01:08:39;;;;;;;9.85;4.97;;;;;;;18.64;84.42;100394.41;5054061;28;20116;-80
2021/06/17 01:11:17;;;;;;;9.35;5.53;;;;;;;18.53;85.20;100390.66;5052307;28;20043;-80
2021/06/17 01:13:58;;;;;;;12.77;5.18;;;;;;;18.54;84.73;100387.97;5053958;28;20037;-80
2021/06/17 01:16:54;;;;;;;10.07;5.88;;;;;;;18.53;84.76;100380.16;5054207;28;20489;-81
2021/06/17 01:19:31;;;;;;;7.93;5.03;;;;;;;18.44;85.33;100378.88;5054985;28;20033;-81
2021/06/17 01:22:29;;;;;;;9.32;5.25;;;;;;;18.38;85.93;100387.09;5054702;28;20024;-80
2021/06/17 01:25:11;;;;;;;9.13;5.53;;;;;;;18.35;85.98;100377.63;5054326;28;20611;-80
2021/06/17 01:28:12;;;;;;;7.60;5.20;;;;;;;18.29;86.11;100380.56;5054193;28;20040;-80
2021/06/17 01:30:58;;;;;;;8.45;5.07;;;;;;;18.28;86.01;100370.13;5052294;28;20017;-81
2021/06/17 01:33:26;;;;;;;11.10;5.15;;;;;;;18.28;86.24;100365.72;5054170;28;20044;-81
2021/06/17 01:35:55;;;;;;;8.98;4.93;;;;;;;18.27;85.91;100374.53;5052331;28;20017;-81
2021/06/17 01:38:23;;;;;;;12.07;5.32;;;;;;;18.21;85.95;100364.38;5053387;28;20067;-80
2021/06/17 01:40:50;;;;;;;8.02;5.10;;;;;;;18.24;85.92;100364.19;5051748;28;20025;-80
2021/06/17 01:43:18;;;;;;;9.27;5.10;;;;;;;18.21;85.64;100364.38;5053241;28;20025;-80
2021/06/17 01:45:46;;;;;;;9.27;4.90;;;;;;;18.18;85.83;100362.75;5053150;28;20257;-80
2021/06/17 01:48:11;;;;;;;13.50;5.85;;;;;;;18.15;86.07;100365.53;5053148;28;20029;-80
2021/06/17 01:50:37;;;;;;;8.52;4.50;;;;;;;18.12;85.90;100360.44;5053105;28;20075;-80
2021/06/17 01:53:03;;;;;;;9.65;5.10;;;;;;;18.09;86.32;100367.63;5053199;28;20393;-80
2021/06/17 01:55:31;;;;;;;7.78;5.20;;;;;;;18.11;85.96;100366.63;5053357;28;20059;-80
2021/06/17 01:58:01;;;;;;;10.93;4.93;;;;;;;18.04;86.45;100362.63;5053174;28;20028;-80
2021/06/17 02:00:27;;;;;;;8.70;5.07;;;;;;;18.00;86.86;100361.09;5053103;28;20021;-80
2021/06/17 02:02:53;;;;;;;10.18;5.25;;;;;;;17.99;86.47;100364.66;5052972;28;20113;-80
2021/06/17 02:05:22;;;;;;;10.07;4.53;;;;;;;17.96;86.71;100363.97;5051670;28;20381;-80
2021/06/17 02:07:49;;;;;;;7.53;4.57;;;;;;;17.93;86.97;100368.44;5053652;28;20449;-80
2021/06/17 02:10:18;;;;;;;11.32;5.03;;;;;;;17.86;87.20;100363.59;5056876;28;20154;-80
2021/06/17 02:12:46;;;;;;;8.65;4.85;;;;;;;17.86;87.06;100363.59;5056474;28;20035;-80
2021/06/17 02:15:12;;;;;;;8.18;5.20;;;;;;;17.84;87.04;100370.69;5055314;28;20484;-80
2021/06/17 02:17:41;;;;;;;7.63;4.53;;;;;;;17.76;87.43;100368.41;5055122;28;20017;-80
2021/06/17 02:20:07;;;;;;;9.40;4.55;;;;;;;17.74;87.59;100366.81;5056958;28;20024;-80
2021/06/17 02:22:34;;;;;;;11.63;4.75;;;;;;;17.71;87.62;100362.56;5057132;28;20052;-80
2021/06/17 02:25:00;;;;;;;10.40;5.07;;;;;;;17.71;87.41;100362.56;5056652;28;20033;-80
2021/06/17 02:27:30;;;;;;;8.48;5.20;;;;;;;17.69;87.49;100365.25;5056333;28;20119;-80
2021/06/17 02:30:00;;;;;;;13.73;5.38;;;;;;;17.63;87.65;100362.09;5054822;28;20028;-80
2021/06/17 02:32:27;;;;;;;10.20;4.65;;;;;;;17.64;87.44;100353.28;5056195;28;20029;-80
2021/06/17 02:34:57;;;;;;;8.38;4.68;;;;;;;17.60;87.75;100349.13;5054513;28;20078;-80
2021/06/17 02:37:23;;;;;;;8.38;4.47;;;;;;;17.57;87.60;100351.91;5054886;28;20123;-80
2021/06/17 02:39:51;;;;;;;9.95;4.82;;;;;;;17.62;87.53;100344.69;5055718;28;20036;-80
2021/06/17 02:42:20;;;;;;;9.88;4.82;;;;;;;17.60;87.25;100342.13;5054807;28;20024;-80
2021/06/17 02:44:49;;;;;;;8.27;4.47;;;;;;;17.56;87.60;100337.97;5055885;28;20029;-80
2021/06/17 02:47:14;;;;;;;7.85;4.47;;;;;;;17.56;87.38;100337.97;5054802;28;20026;-80
2021/06/17 02:49:40;;;;;;;8.77;4.63;;;;;;;17.54;87.42;100337.19;5054583;28;20100;-80
2021/06/17 02:52:06;;;;;;;9.23;5.15;;;;;;;17.56;87.26;100327.47;5054465;28;20024;-80
2021/06/17 02:54:31;;;;;;;9.02;4.82;;;;;;;17.53;87.72;100337.28;5054437;28;20021;-80
2021/06/17 02:57:07;;;;;;;10.40;4.18;;;;;;;17.52;87.06;100333.81;5055700;28;20582;-80
2021/06/17 03:00:03;;;;;;;6.93;4.20;;;;;;;17.53;87.23;100342.53;5054276;28;20393;-80
2021/06/17 03:02:37;;;;;;;7.25;4.32;;;;;;;17.51;87.41;100336.50;5055495;28;20115;-80
2021/06/17 03:05:18;;;;;;;8.48;4.50;;;;;;;17.51;87.16;100336.50;5054239;28;20393;-80
2021/06/17 03:07:57;;;;;;;8.90;4.53;;;;;;;17.49;87.30;100341.84;5055560;28;20178;-80
2021/06/17 03:10:23;;;;;;;8.63;4.60;;;;;;;17.58;86.15;100338.75;5054148;28;20078;-80
2021/06/17 03:12:51;;;;;;;8.07;4.53;;;;;;;17.51;86.64;100332.09;5055600;28;20431;-80
2021/06/17 03:15:16;;;;;;;7.63;4.30;;;;;;;17.46;88.07;100331.50;5053908;28;20066;-80
2021/06/17 03:17:48;;;;;;;10.35;4.15;;;;;;;17.45;87.44;100332.41;5055409;28;20108;-80
2021/06/17 03:23:38;;;;;;;8.00;4.13;;;;;;;17.47;86.95;100330.56;5056220;28;20094;-80
2021/06/17 03:26:06;;;;;;;9.57;3.85;;;;;;;17.48;86.98;100332.25;5055112;28;20492;-80
2021/06/17 03:28:33;;;;;;;8.80;3.97;;;;;;;17.44;87.84;100334.19;5055164;28;20452;-80
2021/06/17 03:30:59;;;;;;;10.00;4.05;;;;;;;17.46;87.11;100341.97;5053780;28;20025;-80
2021/06/17 03:33:27;;;;;;;10.07;4.10;;;;;;;17.45;87.91;100343.72;5055212;28;20074;-80
2021/06/17 03:35:53;;;;;;;7.85;4.85;;;;;;;17.48;87.01;100346.19;5053720;28;20513;-80
2021/06/17 03:38:22;;;;;;;7.85;4.57;;;;;;;17.47;86.88;100349.75;5053823;28;20131;-80
2021/06/17 03:40:49;;;;;;;9.77;4.70;;;;;;;17.48;87.18;100345.34;5054992;28;20044;-80
2021/06/17 03:43:16;;;;;;;10.20;4.40;;;;;;;17.48;87.48;100338.34;5053732;28;20479;-80
2021/06/17 03:45:43;;;;;;;19.75;4.97;;;;;;;17.47;87.52;100348.91;5053440;28;20029;-80
2021/06/17 03:48:11;;;;;;;9.93;4.05;;;;;;;17.48;87.51;100337.50;5054760;28;20024;-80
2021/06/17 03:50:38;;;;;;;9.98;4.47;;;;;;;17.48;87.03;100337.50;5053353;28;20032;-80
2021/06/17 03:53:03;;;;;;;9.38;5.13;;;;;;;17.51;87.46;100333.88;5053334;28;20021;-80
2021/06/17 03:55:32;;;;;;;12.30;4.43;;;;;;;17.51;86.99;100332.09;5054849;28;20370;-80
2021/06/17 03:57:58;;;;;;;7.05;4.30;;;;;;;17.51;87.29;100328.63;5053178;28;20023;-80
2021/06/17 04:00:26;;;;;;;10.02;4.03;;;;;;;17.52;87.49;100332.94;5053218;28;20020;-80
2021/06/17 04:02:55;;;;;;;8.02;4.25;;;;;;;17.56;87.38;100334.50;5054658;28;20032;-80
2021/06/17 04:05:21;;;;;;;8.77;3.70;;;;;;;17.55;87.16;100332.78;5053274;28;20504;-80
2021/06/17 04:07:48;;;;;;;6.90;4.43;;;;;;;17.59;86.44;100329.09;5053097;28;20029;-80
2021/06/17 04:10:17;;;;;;;8.05;3.72;;;;;;;17.64;86.09;100329.69;5053030;28;20448;-80
2021/06/17 04:12:43;;;;;;;8.95;3.92;;;;;;;17.66;86.28;100330.47;5054360;28;20070;-80
2021/06/17 04:15:10;;;;;;;8.27;4.00;;;;;;;17.66;86.05;100328.69;5052877;28;20024;-81
2021/06/17 04:17:43;;;;;;;8.80;4.15;;;;;;;17.69;86.06;100328.53;5053007;28;20477;-81
2021/06/17 04:20:12;;;;;;;6.38;3.88;;;;;;;17.76;86.05;100334.31;5053012;28;20046;-81
2021/06/17 04:22:43;;;;;;;9.45;4.30;;;;;;;17.76;86.22;100325.59;5054257;28;20032;-81
2021/06/17 04:25:09;;;;;;;16.55;4.43;;;;;;;17.73;85.86;100329.22;5054412;28;20139;-81
2021/06/17 04:27:36;;;;;;;10.60;4.05;;;;;;;17.77;85.43;100324.69;5054005;28;20029;-80
2021/06/17 04:30:03;;;;;;;8.82;4.13;;;;;;;17.81;84.70;100321.84;5054085;28;20029;-80
2021/06/17 04:32:29;;;;;;;11.43;3.97;;;;;;;17.81;85.19;100326.25;5053962;28;20029;-80
2021/06/17 04:34:59;;;;;;;7.38;3.92;;;;;;;17.86;84.96;100326.88;5052777;28;20028;-80
2021/06/17 04:37:27;;;;;;;7.10;4.07;;;;;;;17.88;85.17;100330.22;5053102;28;20388;-80
2021/06/17 04:40:00;;;;;;;9.90;4.35;;;;;;;17.91;84.51;100330.06;5052586;28;20046;-80
2021/06/17 04:42:27;;;;;;;11.88;4.20;;;;;;;17.96;84.81;100320.19;5052624;28;20504;-80
2021/06/17 04:44:53;;;;;;;9.70;3.90;;;;;;;18.03;84.80;100321.56;5052927;28;20032;-80
2021/06/17 04:47:19;;;;;;;9.30;3.85;;;;;;;18.04;84.80;100319.78;5054558;28;20112;-80
2021/06/17 04:49:45;;;;;;;8.35;3.97;;;;;;;18.07;84.64;100320.50;5053268;28;20053;-80
2021/06/17 04:52:31;;;;;;;15.27;4.03;;;;;;;18.16;83.54;100319.13;5054293;28;20029;-80
2021/06/17 04:54:56;;;;;;;10.27;4.15;;;;;;;18.20;83.69;100317.22;5053436;28;20013;-80
2021/06/17 04:57:22;;;;;;;11.25;4.03;;;;;;;18.27;83.71;100322.03;5052840;28;20052;-80
2021/06/17 04:59:47;;;;;;;12.82;4.55;;;;;;;18.92;80.25;100319.34;5052406;28;20108;-80
2021/06/17 05:02:12;;;;;;;12.38;4.55;;;;;;;19.47;77.55;100315.31;5052349;28;20481;-80
2021/06/17 05:04:39;;;;;;;8.85;4.30;;;;;;;20.08;74.04;100322.16;5052383;28;20021;-80
2021/06/17 05:12:15;;;;;;;10.23;4.43;;;;;;;20.76;71.26;100326.69;5054291;28;20047;-80
2021/06/17 05:14:40;;;;;;;11.55;4.00;;;;;;;20.84;70.23;100323.56;5053577;28;20384;-80
2021/06/17 05:17:06;;;;;;;11.20;3.55;;;;;;;21.03;69.82;100321.44;5052363;28;20472;-81
2021/06/17 05:19:31;;;;;;;7.93;3.83;;;;;;;20.97;69.24;100315.69;5053747;28;20047;-81
2021/06/17 05:21:56;;;;;;;9.43;3.97;;;;;;;21.03;68.38;100318.78;5053755;28;20021;-82
2021/06/17 05:24:22;;;;;;;9.90;3.75;;;;;;;21.56;67.77;100327.59;5052589;28;20027;-81
2021/06/17 05:26:47;;;;;;;13.25;3.85;;;;;;;21.63;66.18;100328.00;5052265;28;20127;-81
2021/06/17 05:29:12;;;;;;;8.88;3.97;;;;;;;21.61;67.33;100332.53;5056697;28;20035;-81
2021/06/17 05:31:38;;;;;;;9.52;3.80;;;;;;;21.57;67.35;100326.63;5056051;28;20534;-82
2021/06/17 05:34:03;;;;;;;8.55;4.00;;;;;;;21.79;66.62;100331.28;5056757;28;20028;-82
2021/06/17 05:36:28;;;;;;;7.65;3.97;;;;;;;21.88;66.73;100328.97;5058241;28;20017;-82
2021/06/17 05:38:54;;;;;;;8.38;3.83;;;;;;;21.93;66.66;100329.50;5058239;28;20108;-82
2021/06/17 05:41:19;;;;;;;10.35;3.72;;;;;;;21.95;65.75;100325.81;5058286;28;20029;-82
2021/06/17 05:43:44;;;;;;;9.45;3.95;;;;;;;22.20;64.56;100329.41;5059282;28;20021;-82
2021/06/17 05:46:10;;;;;;;15.27;4.20;;;;;;;22.05;64.86;100332.13;5061782;28;20146;-82
2021/06/17 05:48:36;;;;;;;15.55;4.70;;;;;;;22.00;66.34;100336.03;5061491;28;20028;-81
2021/06/17 05:51:02;;;;;;;14.63;4.53;;;;;;;22.18;65.19;100334.78;5061693;28;20029;-81
2021/06/17 05:53:27;;;;;;;15.48;4.00;;;;;;;22.19;64.84;100332.97;5063622;28;20033;-81
2021/06/17 05:55:53;;;;;;;17.30;5.32;;;;;;;22.23;64.51;100332.69;5062507;28;20013;-81
2021/06/17 05:58:18;;;;;;;27.95;6.20;;;;;;;22.40;63.13;100336.75;5062436;28;20529;-81
2021/06/17 06:00:43;;;;;;;15.87;4.23;;;;;;;22.48;64.85;100341.50;5062445;28;20029;-81
2021/06/17 06:03:09;;;;;;;22.65;5.75;;;;;;;22.61;64.06;100352.88;5063012;28;20315;-81
2021/06/17 06:05:35;;;;;;;13.25;6.15;;;;;;;22.63;63.50;100353.63;5062332;28;20029;-81
2021/06/17 06:08:03;;;;;;;16.38;5.78;;;;;;;22.61;64.22;100357.31;5059950;28;20477;-81
2021/06/17 06:10:30;;;;;;;12.70;4.70;;;;;;;22.79;63.31;100352.53;5058901;28;20113;-81
2021/06/17 06:12:56;;;;;;;19.45;5.00;;;;;;;22.69;63.80;100347.03;5059366;28;20029;-82
2021/06/17 06:15:22;;;;;;;14.13;4.35;;;;;;;23.13;63.68;100354.41;5056781;28;20019;-82
2021/06/17 06:17:47;;;;;;;13.20;4.32;;;;;;;23.32;62.47;100345.94;5057604;28;20107;-82
2021/06/17 06:20:13;;;;;;;8.90;4.47;;;;;;;23.41;61.78;100347.88;5059340;28;20059;-81
2021/06/17 06:22:39;;;;;;;11.60;4.55;;;;;;;23.92;61.46;100353.78;5062980;28;20051;-81
2021/06/17 06:25:06;;;;;;;11.05;4.88;;;;;;;23.72;60.82;100347.41;5065160;28;20031;-81
2021/06/17 06:27:31;;;;;;;19.23;4.47;;;;;;;23.76;61.80;100340.91;5063479;28;20082;-81
2021/06/17 06:30:00;;;;;;;15.30;4.93;;;;;;;23.96;60.20;100350.81;5064809;28;20025;-82
2021/06/17 06:32:26;;;;;;;18.52;4.60;;;;;;;24.09;60.39;100354.19;5065060;28;20049;-82
2021/06/17 06:34:51;;;;;;;15.85;4.72;;;;;;;24.29;61.07;100357.94;5064678;28;20477;-82
2021/06/17 06:37:16;;;;;;;15.57;5.03;;;;;;;24.18;60.89;100355.28;5063231;28;20092;-82
2021/06/17 06:39:41;;;;;;;16.85;5.30;;;;;;;24.84;58.76;100365.09;5062263;28;20029;-81
2021/06/17 06:42:07;;;;;;;17.67;4.90;;;;;;;24.63;59.10;100359.72;5063174;28;20146;-81
2021/06/17 06:44:33;;;;;;;16.25;5.20;;;;;;;24.49;59.69;100360.84;5061358;28;20279;-81
2021/06/17 06:46:59;;;;;;;13.30;4.72;;;;;;;24.65;58.38;100358.63;5062249;28;20032;-81
2021/06/17 06:49:24;;;;;;;13.90;5.22;;;;;;;24.39;58.62;100363.34;5063521;28;20058;-82
2021/06/17 06:51:50;;;;;;;19.10;5.20;;;;;;;24.68;57.27;100360.19;5062049;28;20084;-81
2021/06/17 06:54:18;;;;;;;15.88;5.97;;;;;;;24.77;57.05;100365.59;5062083;28;20017;-81
2021/06/17 06:56:46;;;;;;;15.60;4.75;;;;;;;25.08;58.02;100368.41;5064021;28;20086;-81
2021/06/17 06:59:11;;;;;;;10.68;5.95;;;;;;;25.20;57.22;100366.59;5061974;28;20020;-81
2021/06/17 07:01:37;;;;;;;15.25;5.15;;;;;;;24.91;57.75;100368.94;5063548;28;20488;-81
2021/06/17 07:04:03;;;;;;;12.50;4.90;;;;;;;25.32;56.83;100376.19;5060548;28;20036;-81
2021/06/17 07:06:28;;;;;;;20.38;5.55;;;;;;;26.11;55.32;100375.78;5065110;28;20025;-82
2021/06/17 07:08:53;;;;;;;12.93;5.00;;;;;;;25.67;55.31;100373.22;5060781;28;20029;-82
2021/06/17 07:11:19;;;;;;;13.57;5.80;;;;;;;25.77;55.50;100375.09;5064451;28;20061;-81
2021/06/17 07:13:44;;;;;;;14.38;5.28;;;;;;;25.96;55.25;100377.09;5063037;28;20297;-82
2021/06/17 07:16:10;;;;;;;19.48;5.43;;;;;;;26.02;56.55;100382.72;5065041;28;20024;-82
2021/06/17 07:18:35;;;;;;;14.55;7.07;;;;;;;25.81;56.79;100374.75;5061537;28;20024;-82
2021/06/17 07:21:01;;;;;;;15.18;5.70;;;;;;;26.72;54.14;100380.19;5060711;28;20029;-82
2021/06/17 07:23:28;;;;;;;16.92;5.75;;;;;;;26.58;53.77;100376.13;5062837;28;20071;-82
2021/06/17 07:25:53;;;;;;;9.90;5.88;;;;;;;26.52;53.50;100384.63;5058832;28;20159;-82
2021/06/17 07:28:19;;;;;;;14.95;6.03;;;;;;;26.18;54.92;100384.88;5056692;28;20059;-82
2021/06/17 07:30:44;;;;;;;11.85;5.78;;;;;;;26.94;53.87;100379.97;5057018;28;20056;-82
2021/06/17 07:33:10;;;;;;;15.10;5.38;;;;;;;26.83;53.22;100380.94;5058457;28;20032;-82
2021/06/17 07:35:35;;;;;;;17.33;6.65;;;;;;;27.20;52.48;100384.78;5060012;28;20130;-82
2021/06/17 07:38:00;;;;;;;10.82;5.70;;;;;;;27.45;51.38;100384.22;5058152;28;20067;-82
2021/06/17 07:40:26;;;;;;;16.23;6.25;;;;;;;27.46;51.66;100377.06;5058201;28;20021;-81
2021/06/17 07:42:51;;;;;;;16.40;5.75;;;;;;;27.79;51.50;100374.94;5058538;28;20443;-82
2021/06/17 07:45:16;;;;;;;14.07;5.03;;;;;;;27.45;51.06;100380.72;5057433;28;20032;-82
2021/06/17 07:47:42;;;;;;;12.15;6.30;;;;;;;27.71;50.84;100375.63;5057383;28;20840;-82
2021/06/17 07:50:09;;;;;;;13.05;6.63;;;;;;;27.77;52.30;100373.28;5058176;28;20024;-82
2021/06/17 07:52:35;;;;;;;10.60;5.38;;;;;;;28.06;49.52;100382.19;5056859;28;20021;-82
2021/06/17 07:55:01;;;;;;;15.38;5.60;;;;;;;27.84;51.12;100389.53;5056793;28;20031;-82
2021/06/17 07:57:26;;;;;;;14.10;6.50;;;;;;;28.30;51.16;100389.69;5056685;28;20028;-82
2021/06/17 07:59:51;;;;;;;14.10;6.00;;;;;;;28.37;50.69;100391.59;5058799;28;20029;-80
2021/06/17 08:02:17;;;;;;;11.80;5.90;;;;;;;28.40;50.28;100385.13;5055771;28;20487;-79
2021/06/17 08:04:42;;;;;;;13.00;6.03;;;;;;;28.48;51.27;100385.28;5057579;28;20283;-79
2021/06/17 08:07:07;;;;;;;14.85;5.80;;;;;;;28.16;51.28;100382.97;5055894;28;20027;-79
2021/06/17 08:09:33;;;;;;;15.18;4.65;;;;;;;27.37;53.77;100385.91;5056448;28;20024;-80
2021/06/17 08:11:59;;;;;;;15.45;6.22;;;;;;;28.47;50.68;100380.91;5058860;28;20021;-80
2021/06/17 08:14:25;;;;;;;17.90;6.32;;;;;;;29.54;48.83;100386.38;5058847;28;20024;-80
2021/06/17 08:16:52;;;;;;;15.88;6.85;;;;;;;28.75;48.78;100383.56;5058748;28;20538;-80
2021/06/17 08:19:19;;;;;;;23.20;6.18;;;;;;;29.09;48.83;100379.28;5056816;28;20396;-80
2021/06/17 08:21:44;;;;;;;18.48;7.28;;;;;;;29.35;48.57;100382.03;5058379;28;20025;-80
2021/06/17 08:24:10;;;;;;;16.30;5.90;;;;;;;29.83;47.30;100377.22;5056874;28;20048;-80
2021/06/17 08:26:36;;;;;;;17.58;5.50;;;;;;;30.61;45.91;100374.47;5057171;28;20020;-80
2021/06/17 08:29:03;;;;;;;20.65;5.50;;;;;;;29.08;48.23;100369.59;5059140;28;20100;-80
2021/06/17 08:31:28;;;;;;;12.70;4.95;;;;;;;28.42;49.85;100361.84;5058040;28;20025;-80
2021/06/17 08:33:54;;;;;;;13.00;5.13;;;;;;;28.62;51.29;100358.06;5058958;28;20098;-80
2021/06/17 08:36:21;;;;;;;33.20;6.50;;;;;;;28.70;50.63;100360.00;5057822;28;20021;-80
2021/06/17 08:38:46;;;;;;;21.58;5.90;;;;;;;28.90;50.88;100360.72;5059721;28;20082;-82
2021/06/17 08:41:13;;;;;;;21.60;6.35;;;;;;;29.49;48.55;100361.09;5059067;28;20096;-82
2021/06/17 08:43:38;;;;;;;15.35;5.15;;;;;;;29.63;46.73;100346.38;5057568;28;20024;-82
2021/06/17 08:46:04;;;;;;;17.85;5.47;;;;;;;29.54;48.41;100358.81;5058636;28;20029;-82
2021/06/17 08:48:30;;;;;;;14.93;5.97;;;;;;;30.06;48.02;100353.47;5060205;28;20025;-82
2021/06/17 08:50:55;;;;;;;11.43;5.18;;;;;;;29.47;48.04;100350.56;5058275;28;20060;-82
2021/06/17 08:53:21;;;;;;;18.50;7.28;;;;;;;30.05;46.92;100351.81;5060350;28;20023;-82
2021/06/17 08:55:47;;;;;;;12.52;5.43;;;;;;;30.22;46.13;100352.75;5058308;28;20017;-82
2021/06/17 08:58:12;;;;;;;9.57;5.00;;;;;;;29.73;47.44;100342.59;5056817;28;20055;-82
2021/06/17 09:00:42;;;;;;;9.85;4.70;;;;;;;30.81;47.66;100342.91;5058903;28;20446;-82
2021/06/17 09:03:13;;;;;;;12.18;4.95;;;;;;;30.43;47.68;100344.31;5058983;28;20463;-80
2021/06/17 09:05:40;;;;;;;10.25;5.00;;;;;;;31.07;44.95;100337.44;5056584;28;20021;-80
2021/06/17 09:08:07;;;;;;;10.30;5.25;;;;;;;30.09;46.51;100333.59;5057380;28;20036;-80
2021/06/17 09:10:34;;;;;;;12.15;5.25;;;;;;;30.63;45.41;100334.97;5058809;28;20477;-80
2021/06/17 09:13:03;;;;;;;10.68;5.07;;;;;;;30.42;46.53;100330.09;5059096;28;20401;-80
2021/06/17 09:15:37;;;;;;;10.25;4.75;;;;;;;32.30;44.46;100329.22;5057445;28;20021;-80
2021/06/17 09:18:29;;;;;;;11.38;5.35;;;;;;;30.90;44.37;100333.91;5059290;28;20024;-80
2021/06/17 09:20:55;;;;;;;9.23;5.05;;;;;;;30.78;45.47;100324.50;5058881;28;20052;-82
2021/06/17 09:23:24;;;;;;;16.88;4.80;;;;;;;31.11;45.36;100321.88;5059545;28;20541;-82
2021/06/17 09:25:54;;;;;;;9.15;5.05;;;;;;;31.17;43.68;100316.66;5060169;28;20033;-82
2021/06/17 09:28:20;;;;;;;10.82;5.10;;;;;;;31.11;43.17;100311.97;5059618;28;20028;-82
2021/06/17 09:30:46;;;;;;;9.43;4.68;;;;;;;30.92;43.55;100323.03;5060049;28;20025;-80
2021/06/17 09:33:14;;;;;;;10.77;5.75;;;;;;;31.22;43.36;100307.28;5060597;28;20076;-80
2021/06/17 09:35:51;;;;;;;9.55;5.07;;;;;;;30.95;45.19;100312.81;5060440;28;20078;-80
2021/06/17 09:38:18;;;;;;;11.75;5.35;;;;;;;32.02;42.58;100300.16;5060519;28;20083;-80
2021/06/17 09:40:49;;;;;;;9.57;5.25;;;;;;;32.15;43.12;100296.91;5060199;28;20025;-80
2021/06/17 09:43:23;;;;;;;7.57;4.70;;;;;;;32.45;41.79;100302.47;5060507;28;20068;-80
2021/06/17 09:45:58;;;;;;;8.20;5.10;;;;;;;32.04;41.02;100306.16;5061913;28;20489;-80
2021/06/17 09:48:46;;;;;;;8.00;4.93;;;;;;;32.02;40.31;100304.66;5059741;28;20029;-80
2021/06/17 09:51:44;;;;;;;8.35;4.80;;;;;;;32.40;40.00;100305.66;5062400;28;20076;-80
2021/06/17 09:54:16;;;;;;;9.15;5.13;;;;;;;31.46;41.63;100306.47;5061636;28;20047;-80
2021/06/17 09:56:44;;;;;;;12.45;5.50;;;;;;;31.81;41.74;100307.91;5059817;28;20017;-80
2021/06/17 09:59:10;;;;;;;8.23;5.20;;;;;;;32.27;42.64;100308.94;5059701;28;20017;-80
2021/06/17 10:01:42;;;;;;;11.20;4.70;;;;;;;32.74;40.83;100305.31;5061706;28;20021;-80
2021/06/17 10:04:12;;;;;;;11.25;4.75;;;;;;;32.02;42.09;100304.66;5059364;28;20025;-80
2021/06/17 10:06:40;;;;;;;9.23;5.10;;;;;;;32.60;41.37;100308.75;5059190;28;20017;-80
2021/06/17 10:09:13;;;;;;;9.35;4.88;;;;;;;32.59;40.66;100301.72;5058649;28;20021;-80
2021/06/17 10:11:40;;;;;;;10.27;4.33;;;;;;;31.92;41.44;100301.34;5061346;28;20029;-80
2021/06/17 10:14:07;;;;;;;9.75;4.55;;;;;;;32.32;38.33;100294.97;5063497;28;20052;-80
2021/06/17 10:16:33;;;;;;;9.30;5.07;;;;;;;32.64;38.24;100303.91;5061954;28;20025;-80
2021/06/17 10:19:00;;;;;;;8.35;4.57;;;;;;;32.13;40.70;100306.13;5066072;28;20052;-80
2021/06/17 10:21:26;;;;;;;10.77;4.47;;;;;;;32.80;39.86;100311.00;5062130;28;20036;-80
2021/06/17 10:23:52;;;;;;;9.50;4.75;;;;;;;33.37;38.36;100302.47;5059553;28;20025;-80
2021/06/17 10:26:23;;;;;;;7.70;4.22;;;;;;;33.24;39.62;100301.25;5060871;28;20021;-80
2021/06/17 10:28:55;;;;;;;9.32;4.50;;;;;;;32.68;39.21;100306.03;5058155;28;20028;-80
2021/06/17 10:31:36;;;;;;;11.50;4.30;;;;;;;33.63;37.55;100292.16;5063723;28;20021;-80
2021/06/17 10:34:23;;;;;;;14.00;5.07;;;;;;;32.33;38.47;100300.19;5061133;28;20485;-80
2021/06/17 10:37:04;;;;;;;13.65;4.50;;;;;;;32.64;38.86;100293.97;5060078;28;20021;-80
2021/06/17 10:39:40;;;;;;;8.07;4.68;;;;;;;32.63;36.85;100281.53;5060813;28;20111;-80
2021/06/17 10:42:05;;;;;;;8.15;4.72;;;;;;;33.64;37.49;100275.00;5057913;28;20472;-80
2021/06/17 10:44:47;;;;;;;7.90;4.30;;;;;;;34.24;35.97;100281.19;5057936;28;20033;-80
2021/06/17 10:47:41;;;;;;;8.38;4.75;;;;;;;33.88;36.42;100281.94;5060952;28;20056;-81
2021/06/17 10:50:21;;;;;;;8.07;5.03;;;;;;;32.69;35.98;100275.47;5059848;28;20074;-80
2021/06/17 10:53:10;;;;;;;7.63;4.30;;;;;;;33.06;36.33;100276.53;5062962;28;20374;-80
2021/06/17 10:55:49;;;;;;;9.68;4.43;;;;;;;32.95;35.56;100274.28;5063993;28;20421;-80
2021/06/17 10:58:14;;;;;;;9.05;4.10;;;;;;;32.69;36.85;100275.47;5061437;28;20024;-80
2021/06/17 11:00:44;;;;;;;6.77;4.20;;;;;;;33.74;35.31;100269.34;5062063;28;20362;-80
2021/06/17 11:03:13;;;;;;;8.75;4.45;;;;;;;34.51;33.52;100276.09;5059945;28;20263;-80
2021/06/17 11:05:38;;;;;;;11.10;4.35;;;;;;;34.74;33.07;100273.25;5061308;28;20025;-80
2021/06/17 11:08:13;;;;;;;11.15;4.30;;;;;;;34.83;33.55;100262.16;5061110;28;20035;-80
2021/06/17 11:10:53;;;;;;;7.38;4.32;;;;;;;34.75;33.70;100270.34;5059539;28;20029;-83
2021/06/17 11:13:28;;;;;;;11.73;4.72;;;;;;;34.30;34.83;100274.19;5056886;28;20017;-80
2021/06/17 11:15:54;;;;;;;9.65;4.40;;;;;;;33.77;34.62;100278.88;5060823;28;20021;-80
2021/06/17 11:18:53;;;;;;;8.35;4.65;;;;;;;34.03;33.42;100273.91;5059856;28;20037;-80
2021/06/17 11:21:21;;;;;;;7.07;4.60;;;;;;;34.06;34.55;100262.75;5058820;28;20051;-80
2021/06/17 11:23:52;;;;;;;10.05;4.57;;;;;;;31.84;36.77;100256.59;5059518;28;20021;-80
2021/06/17 11:26:47;;;;;;;6.55;3.92;;;;;;;33.32;34.64;100253.81;5059653;28;20025;-80
2021/06/17 11:29:21;;;;;;;9.30;4.65;;;;;;;34.18;34.51;100262.25;5058784;28;20037;-80
2021/06/17 11:31:54;;;;;;;17.85;4.60;;;;;;;33.95;35.42;100265.88;5054853;28;20431;-80
2021/06/17 11:34:28;;;;;;;6.05;3.45;;;;;;;34.81;29.14;100253.41;5055487;28;20017;-79
2021/06/17 11:36:56;;;;;;;5.85;3.03;;;;;;;35.10;28.57;100254.31;5054578;28;20028;-79
2021/06/17 11:39:26;;;;;;;5.75;2.97;;;;;;;35.48;27.96;100251.25;5055036;28;20477;-79